Portada
METAR-TAF:

METAR-TAF

Aeroports :

Aeroport de Londres-Luton

Luton, Anglaterra

latitud: 51-52N, longitud: 000-22W, altitud: 160 m

Observació

L'informe es va fer fa 25 minuts, a les 21:50 UTC
Vent 4 kt del Sud-Est
Temperatura 18°C
Humitat 73%
Pressió 1018 hPa
Visibilitat 10 km o més

METAR: EGGW 242150Z AUTO 13004KT 9999 NCD 18/13 Q1018

Hora: 23:15 (22:15 UTC)

Pronòstic

L'informe es va fer fa 5 hores i 20 minuts, a les 16:55 UTC
Pronòstic vàlid del 24 a les 18 UTC al 25 a les 18 UTC
Vent 4 kt del Est/Sud-Est
Visibilitat 10 km o més
sense núvols per sota de 1500 mi sense presència de cumulonimbus.
Evolucionant progressivament
l' 24 a les 21 UTC al 24 a les 24 UTC
Visibilitat: 8000 m
Probabilitat 30%
l' 25 a les 03 UTC al 25 a les 07 UTC
Visibilitat: 4000 m
boirina
Evolucionant progressivament
l' 25 a les 06 UTC al 25 a les 09 UTC
Visibilitat: 8000 m

TAF: EGGW 241655Z 2418/2518 11004KT CAVOK BECMG 2421/2424 8000 PROB30 2503/2507 4000 BR BECMG 2506/2509 8000

Observacions i pronòstics meteorològics de més de 4000 aeroports (METAR i TAF).

Les estacions disponibles són els punts grocs i vermells al mapa.

Posi el ratolí al punt desitjat per veure el nom de l'estació.

Feu clic per veure les observacions i els pronòstics meteorològics.

Per canviar el mapa: feu clic els botons verds amb una creu de color negre per apropar; al botó verd amb un guió per allunyar la imatge; o en les fletxes verdes per a mapes adjacents.


METAR-TAF: